KADM/ADM METAR and TAF weather

Enter ICAO airport designator
Station Type Date Time Source
KADM METAR 2018/01/19 22:55 UTC NOAA

KADM 192255Z AUTO 15012G16KT 10SM CLR 14/04 A2997 RMK AO2 T01420039


Station Type Date Time Source
KADM Decoded METAR 2018/01/19 22:55 UTC NOAA

Ardmore, Ardmore Municipal Airport, OK, United States (KADM) 34-18-11N 097-01-10W
Jan 19, 2018 - 05:55 PM EST / 2018.01.19 2255 UTC
Wind: from the SSE (150 degrees) at 14 MPH (12 KT) gusting to 18 MPH (16 KT):0
Visibility: 10 mile(s):0
Sky conditions: clear
Temperature: 57.6 F (14.2 C)
Dew Point: 39.0 F (3.9 C)
Relative Humidity: 49%
Pressure (altimeter): 29.97 in. Hg (1014 hPa)
ob: KADM 192255Z AUTO 15012G16KT 10SM CLR 14/04 A2997 RMK AO2 T01420039
cycle: 23

Station Type Date Time Source
KADM TAF UTC NOAA

Error!


Example: see airport list